createdAt,value
2018-02-23T00:00:32.735Z,15.70
2018-02-23T00:01:08.612Z,14.80
2018-02-23T00:01:43.925Z,15.00
2018-02-23T00:02:19.237Z,15.80
2018-02-23T00:02:55.039Z,15.30
2018-02-23T00:03:30.442Z,15.50
2018-02-23T00:04:05.695Z,16.10
2018-02-23T00:04:41.528Z,14.70
2018-02-23T00:05:17.017Z,16.00
2018-02-23T00:05:52.353Z,16.90
2018-02-23T00:06:27.390Z,15.00
2018-02-23T00:07:02.683Z,16.00
2018-02-23T00:07:38.006Z,16.60
2018-02-23T00:08:13.308Z,16.60
2018-02-23T00:08:48.839Z,16.40
2018-02-23T00:09:24.392Z,16.90
2018-02-23T00:10:00.103Z,16.20
2018-02-23T00:10:35.733Z,15.60
2018-02-23T00:11:11.128Z,16.80
2018-02-23T00:11:46.531Z,16.80
2018-02-23T00:12:22.379Z,16.30
2018-02-23T00:12:58.071Z,17.10
2018-02-23T00:13:34.095Z,16.90
2018-02-23T00:14:09.472Z,16.00
2018-02-23T00:14:45.320Z,15.70
2018-02-23T00:15:20.839Z,15.70
2018-02-23T00:15:59.635Z,15.60
2018-02-23T00:16:35.504Z,15.50
2018-02-23T00:17:10.945Z,16.00
2018-02-23T00:17:46.739Z,17.00
2018-02-23T00:18:22.052Z,16.60
2018-02-23T00:18:57.667Z,16.20
2018-02-23T00:19:33.282Z,16.40
2018-02-23T00:20:08.707Z,16.60
2018-02-23T00:20:44.055Z,17.20
2018-02-23T00:21:19.977Z,16.40
2018-02-23T00:21:55.383Z,15.90
2018-02-23T00:22:32.398Z,16.20
2018-02-23T00:23:07.773Z,16.20
2018-02-23T00:23:42.999Z,16.70
2018-02-23T00:24:18.590Z,16.40
2018-02-23T00:24:54.901Z,16.00
2018-02-23T00:25:30.236Z,16.60
2018-02-23T00:26:05.439Z,16.20
2018-02-23T00:26:40.874Z,16.80
2018-02-23T00:27:16.516Z,15.90
2018-02-23T00:27:52.231Z,15.90
2018-02-23T00:28:27.437Z,17.20
2018-02-23T00:29:02.615Z,16.50
2018-02-23T00:29:37.910Z,15.90
2018-02-23T00:30:13.203Z,16.60
2018-02-23T00:30:48.763Z,17.80
2018-02-23T00:31:24.078Z,17.30
2018-02-23T00:31:59.502Z,16.10
2018-02-23T00:32:34.831Z,16.40
2018-02-23T00:33:10.325Z,18.00
2018-02-23T00:33:45.820Z,18.30
2018-02-23T00:34:21.251Z,17.80
2018-02-23T00:34:56.647Z,16.80
2018-02-23T00:35:31.958Z,17.20
2018-02-23T00:36:07.078Z,16.30
2018-02-23T00:36:47.513Z,15.50
2018-02-23T00:37:22.819Z,16.90
2018-02-23T00:37:58.209Z,17.10
2018-02-23T00:38:33.827Z,18.60
2018-02-23T00:39:09.230Z,18.30
2018-02-23T00:39:44.854Z,18.20
2018-02-23T00:40:20.470Z,17.40
2018-02-23T00:40:58.881Z,17.20
2018-02-23T00:41:35.753Z,18.40
2018-02-23T00:42:13.742Z,16.80
2018-02-23T00:42:49.251Z,17.30
2018-02-23T00:43:25.881Z,18.40
2018-02-23T00:44:01.780Z,18.10
2018-02-23T00:44:41.023Z,17.90
2018-02-23T00:45:16.220Z,17.50
2018-02-23T00:45:54.528Z,16.80
2018-02-23T00:46:30.048Z,17.60
2018-02-23T00:47:05.180Z,18.80
2018-02-23T00:47:42.517Z,18.80
2018-02-23T00:48:18.714Z,17.80
2018-02-23T00:48:57.235Z,18.50
2018-02-23T00:49:34.070Z,18.80
2018-02-23T00:50:09.259Z,18.20
2018-02-23T00:50:46.078Z,17.20
2018-02-23T00:51:21.992Z,17.90
2018-02-23T00:51:57.513Z,17.80
2018-02-23T00:52:33.255Z,18.10
2018-02-23T00:53:10.190Z,18.40
2018-02-23T00:53:45.644Z,18.40
2018-02-23T00:54:20.967Z,18.30
2018-02-23T00:54:56.370Z,18.70
2018-02-23T00:55:31.690Z,18.60
2018-02-23T00:56:07.124Z,18.30
2018-02-23T00:56:42.426Z,17.60
2018-02-23T00:57:18.021Z,18.70
2018-02-23T00:57:53.925Z,17.30
2018-02-23T00:58:29.278Z,17.30
2018-02-23T00:59:04.667Z,16.70
2018-02-23T00:59:40.075Z,18.40
2018-02-23T01:00:15.509Z,19.30
2018-02-23T01:00:52.660Z,18.60
2018-02-23T01:01:28.963Z,18.40
2018-02-23T01:02:04.451Z,18.90
2018-02-23T01:02:39.795Z,18.80
2018-02-23T01:03:15.304Z,18.10
2018-02-23T01:03:51.021Z,17.70
2018-02-23T01:04:26.555Z,18.70
2018-02-23T01:05:02.143Z,18.70
2018-02-23T01:05:37.997Z,18.90
2018-02-23T01:06:13.010Z,18.70
2018-02-23T01:06:49.985Z,19.00
2018-02-23T01:07:27.736Z,17.30
2018-02-23T01:08:03.029Z,16.70
2018-02-23T01:08:38.685Z,17.50
2018-02-23T01:09:14.172Z,18.10
2018-02-23T01:09:49.411Z,19.10
2018-02-23T01:10:25.047Z,19.70
2018-02-23T01:11:00.778Z,20.10
2018-02-23T01:11:35.806Z,19.30
2018-02-23T01:12:11.097Z,19.20
2018-02-23T01:12:46.423Z,19.40
2018-02-23T01:13:21.842Z,19.40
2018-02-23T01:13:57.381Z,18.90
2018-02-23T01:14:32.715Z,19.60
2018-02-23T01:15:08.110Z,20.50
2018-02-23T01:15:43.842Z,19.30
2018-02-23T01:16:19.047Z,18.10
2018-02-23T01:16:54.454Z,20.10
2018-02-23T01:17:29.863Z,19.20
2018-02-23T01:18:05.470Z,18.90
2018-02-23T01:18:40.584Z,19.00
2018-02-23T01:19:16.200Z,19.10
2018-02-23T01:19:51.420Z,19.30
2018-02-23T01:20:26.847Z,19.20
2018-02-23T01:21:02.050Z,19.20
2018-02-23T01:21:37.268Z,19.10
2018-02-23T01:22:12.565Z,19.30
2018-02-23T01:22:47.692Z,19.20
2018-02-23T01:23:22.921Z,18.50
2018-02-23T01:23:58.143Z,18.20
2018-02-23T01:24:33.497Z,18.70
2018-02-23T01:25:09.192Z,19.50
2018-02-23T01:25:45.125Z,19.30
2018-02-23T01:26:20.448Z,18.90
2018-02-23T01:26:55.806Z,18.60
2018-02-23T01:27:31.075Z,20.20
2018-02-23T01:28:06.471Z,20.90
2018-02-23T01:28:41.969Z,20.60
2018-02-23T01:29:17.164Z,20.80
2018-02-23T01:29:52.464Z,21.80
2018-02-23T01:30:27.789Z,21.00
2018-02-23T01:31:02.989Z,19.30
2018-02-23T01:31:38.423Z,19.60
2018-02-23T01:32:13.801Z,20.70
2018-02-23T01:32:49.011Z,21.60
2018-02-23T01:33:24.450Z,21.80
2018-02-23T01:33:59.844Z,20.40
2018-02-23T01:34:35.502Z,20.40
2018-02-23T01:35:11.011Z,19.90
2018-02-23T01:35:46.392Z,19.80
2018-02-23T01:36:21.888Z,19.10
2018-02-23T01:36:57.393Z,19.50
2018-02-23T01:37:32.707Z,20.40
2018-02-23T01:38:07.905Z,21.20
2018-02-23T01:38:43.350Z,21.10
2018-02-23T01:39:18.582Z,21.10
2018-02-23T01:39:53.989Z,20.70
2018-02-23T01:40:29.230Z,20.60
2018-02-23T01:41:04.533Z,21.80
2018-02-23T01:41:40.285Z,20.90
2018-02-23T01:42:15.989Z,19.90
2018-02-23T01:42:51.329Z,19.90
2018-02-23T01:43:26.969Z,20.10
2018-02-23T01:44:02.193Z,20.90
2018-02-23T01:44:38.109Z,21.00
2018-02-23T01:45:13.609Z,21.50
2018-02-23T01:45:53.534Z,22.00
2018-02-23T01:46:29.280Z,21.10
2018-02-23T01:47:04.499Z,21.10
2018-02-23T01:47:40.317Z,21.30
2018-02-23T01:48:15.540Z,21.60
2018-02-23T01:48:50.784Z,22.00
2018-02-23T01:49:26.617Z,20.80
2018-02-23T01:50:01.929Z,21.40
2018-02-23T01:50:38.236Z,22.60
2018-02-23T01:51:13.367Z,22.70
2018-02-23T01:51:48.681Z,22.10
2018-02-23T01:52:24.029Z,22.00
2018-02-23T01:52:59.344Z,22.00
2018-02-23T01:53:34.875Z,22.10
2018-02-23T01:54:10.187Z,21.90
2018-02-23T01:54:45.983Z,21.60
2018-02-23T01:55:21.087Z,21.50
2018-02-23T01:55:56.404Z,21.00
2018-02-23T01:56:31.871Z,21.90
2018-02-23T01:57:06.977Z,21.70
2018-02-23T01:57:42.521Z,22.30
2018-02-23T01:58:17.846Z,22.60
2018-02-23T01:58:53.269Z,22.30
2018-02-23T01:59:28.583Z,21.80
2018-02-23T02:00:04.206Z,21.40
2018-02-23T02:00:41.134Z,20.60
2018-02-23T02:01:16.536Z,21.70
2018-02-23T02:01:51.856Z,21.20
2018-02-23T02:02:27.089Z,21.40
2018-02-23T02:03:02.484Z,22.40
2018-02-23T02:03:37.997Z,22.10
2018-02-23T02:04:13.679Z,22.60
2018-02-23T02:04:48.999Z,22.90
2018-02-23T02:05:24.541Z,22.00
2018-02-23T02:06:00.131Z,22.50
2018-02-23T02:06:35.719Z,22.40
2018-02-23T02:07:11.324Z,23.50
2018-02-23T02:07:47.139Z,24.40
2018-02-23T02:08:22.643Z,24.20
2018-02-23T02:08:58.146Z,23.60
2018-02-23T02:09:33.451Z,23.40
2018-02-23T02:10:08.971Z,24.10
2018-02-23T02:10:45.837Z,23.80
2018-02-23T02:11:21.608Z,22.90
2018-02-23T02:11:56.710Z,23.40
2018-02-23T02:12:31.834Z,23.10
2018-02-23T02:13:07.235Z,23.50
2018-02-23T02:13:42.852Z,23.10
2018-02-23T02:14:18.954Z,23.50
2018-02-23T02:14:54.469Z,22.30
2018-02-23T02:15:29.866Z,22.90
2018-02-23T02:16:07.361Z,23.90
2018-02-23T02:16:45.901Z,24.20
2018-02-23T02:17:21.326Z,22.80
2018-02-23T02:17:56.813Z,24.40
2018-02-23T02:18:34.665Z,25.40
2018-02-23T02:19:12.060Z,25.00
2018-02-23T02:19:47.578Z,24.00
2018-02-23T02:20:28.883Z,23.00
2018-02-23T02:21:04.390Z,24.10
2018-02-23T02:21:40.359Z,23.80
2018-02-23T02:22:18.559Z,23.60
2018-02-23T02:22:53.970Z,22.70
2018-02-23T02:23:29.411Z,23.60
2018-02-23T02:24:05.046Z,23.80
2018-02-23T02:24:44.066Z,24.20
2018-02-23T02:25:19.582Z,24.90
2018-02-23T02:25:55.177Z,24.40
2018-02-23T02:26:30.695Z,24.50
2018-02-23T02:27:05.999Z,23.40
2018-02-23T02:27:47.235Z,23.80
2018-02-23T02:28:25.755Z,24.40
2018-02-23T02:29:01.019Z,23.80
2018-02-23T02:29:36.623Z,23.40
2018-02-23T02:30:12.324Z,24.20
2018-02-23T02:30:48.294Z,24.20
2018-02-23T02:31:23.728Z,24.20
2018-02-23T02:31:59.171Z,24.30
2018-02-23T02:32:34.574Z,25.60
2018-02-23T02:33:10.063Z,25.90
2018-02-23T02:33:52.206Z,26.30
2018-02-23T02:34:28.458Z,25.70
2018-02-23T02:35:03.782Z,25.20
2018-02-23T02:35:41.308Z,25.00
2018-02-23T02:36:16.800Z,26.20
2018-02-23T02:36:52.672Z,26.20
2018-02-23T02:37:28.091Z,26.40
2018-02-23T02:38:03.184Z,25.60
2018-02-23T02:38:38.612Z,25.50
2018-02-23T02:39:14.222Z,24.70
2018-02-23T02:39:52.964Z,25.80
2018-02-23T02:40:28.283Z,25.90
2018-02-23T02:41:03.659Z,25.90
2018-02-23T02:41:38.959Z,26.70
2018-02-23T02:42:14.490Z,26.30
2018-02-23T02:42:49.814Z,25.70
2018-02-23T02:43:25.137Z,26.00
2018-02-23T02:44:00.340Z,26.00
2018-02-23T02:44:35.665Z,26.50
2018-02-23T02:45:11.171Z,27.20
2018-02-23T02:45:47.733Z,25.60
2018-02-23T02:46:23.390Z,24.70
2018-02-23T02:46:58.810Z,25.90
2018-02-23T02:47:34.223Z,25.70
2018-02-23T02:48:09.909Z,25.90
2018-02-23T02:48:45.229Z,25.80
2018-02-23T02:49:20.562Z,26.80
2018-02-23T02:49:58.457Z,26.70
2018-02-23T02:50:34.176Z,26.50
2018-02-23T02:51:11.684Z,25.60
2018-02-23T02:51:47.205Z,26.30
2018-02-23T02:52:22.588Z,26.20
2018-02-23T02:52:58.501Z,27.00
2018-02-23T02:53:33.966Z,28.00
2018-02-23T02:54:09.158Z,27.10
2018-02-23T02:54:44.510Z,25.90
2018-02-23T02:55:21.760Z,25.20
2018-02-23T02:55:58.366Z,26.40
2018-02-23T02:56:34.305Z,26.90
2018-02-23T02:57:09.547Z,28.20
2018-02-23T02:57:45.260Z,27.40
2018-02-23T02:58:20.497Z,27.30
2018-02-23T02:58:56.583Z,26.00
2018-02-23T02:59:32.110Z,26.40
2018-02-23T03:00:09.083Z,26.70
2018-02-23T03:00:45.321Z,26.30
2018-02-23T03:01:20.770Z,28.40
2018-02-23T03:01:56.072Z,28.80
2018-02-23T03:02:31.352Z,28.80
2018-02-23T03:03:06.859Z,27.30
2018-02-23T03:03:42.449Z,27.70
2018-02-23T03:04:17.922Z,28.10
2018-02-23T03:04:57.155Z,28.70
2018-02-23T03:05:32.661Z,27.10
2018-02-23T03:06:07.969Z,27.70
2018-02-23T03:06:43.397Z,28.20
2018-02-23T03:07:19.144Z,27.90
2018-02-23T03:07:54.533Z,28.40
2018-02-23T03:08:29.858Z,28.40
2018-02-23T03:09:05.261Z,28.10
2018-02-23T03:09:40.998Z,27.60
2018-02-23T03:10:16.270Z,27.40
2018-02-23T03:10:52.079Z,27.60
2018-02-23T03:11:27.380Z,29.90
2018-02-23T03:12:02.864Z,28.10
2018-02-23T03:12:38.716Z,27.50
2018-02-23T03:13:14.244Z,27.90
2018-02-23T03:13:49.559Z,27.40
2018-02-23T03:14:24.926Z,27.40
2018-02-23T03:15:00.290Z,28.10
2018-02-23T03:15:35.795Z,28.60
2018-02-23T03:16:11.224Z,30.00
2018-02-23T03:16:46.642Z,29.60
2018-02-23T03:17:22.101Z,27.90
2018-02-23T03:17:57.492Z,28.50
2018-02-23T03:18:32.608Z,29.10
2018-02-23T03:19:07.900Z,29.30
2018-02-23T03:19:43.125Z,28.10
2018-02-23T03:20:18.351Z,28.60
2018-02-23T03:20:53.546Z,29.30
2018-02-23T03:21:28.803Z,28.50
2018-02-23T03:22:04.320Z,29.20
2018-02-23T03:22:39.679Z,30.90
2018-02-23T03:23:15.068Z,30.20
2018-02-23T03:23:50.582Z,28.80
2018-02-23T03:24:26.102Z,30.50
2018-02-23T03:25:01.681Z,30.40
2018-02-23T03:25:38.641Z,29.90
2018-02-23T03:26:14.037Z,30.10
2018-02-23T03:26:49.592Z,30.80
2018-02-23T03:27:24.895Z,30.40
2018-02-23T03:28:00.491Z,29.30
2018-02-23T03:28:35.702Z,29.90
2018-02-23T03:29:11.074Z,30.30
2018-02-23T03:29:46.210Z,30.80
2018-02-23T03:30:21.463Z,32.20
2018-02-23T03:31:00.050Z,32.20
2018-02-23T03:31:36.178Z,30.20
2018-02-23T03:32:11.354Z,31.10
2018-02-23T03:32:46.911Z,31.00
2018-02-23T03:33:22.222Z,30.20
2018-02-23T03:33:57.594Z,29.90
2018-02-23T03:34:32.901Z,29.20
2018-02-23T03:35:08.556Z,30.30
2018-02-23T03:35:43.857Z,31.40
2018-02-23T03:36:19.386Z,33.20
2018-02-23T03:36:55.041Z,32.40
2018-02-23T03:37:30.687Z,31.10
2018-02-23T03:38:05.906Z,31.30
2018-02-23T03:38:41.169Z,32.70
2018-02-23T03:39:16.285Z,31.80
2018-02-23T03:39:51.630Z,31.90
2018-02-23T03:40:26.990Z,31.40
2018-02-23T03:41:03.081Z,32.80
2018-02-23T03:41:38.609Z,33.20
2018-02-23T03:42:13.827Z,34.10
2018-02-23T03:42:49.352Z,35.00
2018-02-23T03:43:24.572Z,33.40
2018-02-23T03:43:59.886Z,32.70
2018-02-23T03:44:35.192Z,32.40
2018-02-23T03:45:10.391Z,32.90
2018-02-23T03:45:45.695Z,33.50
2018-02-23T03:46:21.304Z,32.60
2018-02-23T03:46:56.902Z,34.40
2018-02-23T03:47:32.388Z,33.90
2018-02-23T03:48:08.003Z,34.00
2018-02-23T03:48:44.288Z,33.70
2018-02-23T03:49:19.521Z,33.90
2018-02-23T03:49:54.933Z,33.80
2018-02-23T03:50:30.344Z,33.50
2018-02-23T03:51:05.444Z,32.70
2018-02-23T03:51:40.870Z,34.10
2018-02-23T03:52:16.175Z,34.60
2018-02-23T03:52:51.836Z,33.40
2018-02-23T03:53:27.166Z,34.00
2018-02-23T03:54:02.578Z,35.40
2018-02-23T03:54:37.893Z,35.60
2018-02-23T03:55:13.608Z,35.80
2018-02-23T03:55:48.982Z,34.30
2018-02-23T03:56:24.108Z,34.40
2018-02-23T03:56:59.491Z,33.40
2018-02-23T03:57:34.914Z,33.30
2018-02-23T03:58:10.428Z,33.90
2018-02-23T03:58:46.373Z,35.30
2018-02-23T03:59:21.681Z,35.80
2018-02-23T03:59:56.786Z,34.40
2018-02-23T04:00:32.329Z,33.80
2018-02-23T04:01:07.812Z,33.70
2018-02-23T04:01:43.035Z,34.30
2018-02-23T04:02:18.835Z,34.60
2018-02-23T04:02:53.973Z,34.70
2018-02-23T04:03:29.371Z,33.10
2018-02-23T04:04:04.775Z,33.50
2018-02-23T04:04:40.104Z,33.70
2018-02-23T04:05:15.997Z,33.80
2018-02-23T04:05:51.389Z,35.70
2018-02-23T04:06:26.713Z,35.60
2018-02-23T04:07:02.005Z,34.70
2018-02-23T04:07:37.217Z,34.90
2018-02-23T04:08:12.544Z,35.20
2018-02-23T04:08:47.967Z,34.90
2018-02-23T04:09:23.615Z,34.10
2018-02-23T04:09:58.727Z,33.40
2018-02-23T04:10:34.048Z,36.10
2018-02-23T04:11:09.626Z,38.70
2018-02-23T04:11:44.848Z,36.80
2018-02-23T04:12:20.249Z,35.70
2018-02-23T04:12:56.091Z,34.80
2018-02-23T04:13:31.502Z,35.00
2018-02-23T04:14:06.591Z,35.10
2018-02-23T04:14:41.811Z,34.70
2018-02-23T04:15:17.327Z,35.00
2018-02-23T04:15:52.753Z,35.30
2018-02-23T04:16:28.269Z,35.10
2018-02-23T04:17:03.465Z,35.40
2018-02-23T04:17:38.897Z,35.40
2018-02-23T04:18:14.221Z,34.60
2018-02-23T04:18:49.442Z,34.60
2018-02-23T04:19:24.862Z,34.90
2018-02-23T04:20:00.550Z,34.60
2018-02-23T04:20:35.860Z,33.70
2018-02-23T04:21:10.962Z,33.40
2018-02-23T04:21:46.185Z,34.40
2018-02-23T04:22:21.902Z,34.20
2018-02-23T04:22:57.115Z,35.30
2018-02-23T04:23:32.564Z,37.00
2018-02-23T04:24:08.091Z,34.60
2018-02-23T04:24:43.530Z,36.20
2018-02-23T04:25:20.164Z,35.70
2018-02-23T04:25:56.652Z,33.00
2018-02-23T04:26:32.388Z,33.20
2018-02-23T04:27:07.773Z,34.90
2018-02-23T04:27:43.103Z,36.00
2018-02-23T04:28:18.319Z,35.70
2018-02-23T04:28:53.644Z,34.50
2018-02-23T04:29:29.170Z,34.90
2018-02-23T04:30:04.463Z,34.40
2018-02-23T04:30:41.008Z,34.30
2018-02-23T04:31:16.200Z,34.90
2018-02-23T04:31:51.329Z,35.90
2018-02-23T04:32:26.648Z,35.30
2018-02-23T04:33:01.862Z,33.90
2018-02-23T04:33:37.084Z,34.70
2018-02-23T04:34:12.484Z,36.50
2018-02-23T04:34:47.926Z,36.50
2018-02-23T04:35:22.932Z,35.50
2018-02-23T04:35:58.132Z,34.60
2018-02-23T04:36:33.470Z,35.80
2018-02-23T04:37:08.846Z,36.00
2018-02-23T04:37:44.095Z,36.10
2018-02-23T04:38:19.609Z,35.30
2018-02-23T04:38:54.712Z,34.70
2018-02-23T04:39:29.934Z,37.50
2018-02-23T04:40:05.278Z,35.40
2018-02-23T04:40:42.088Z,33.70
2018-02-23T04:41:17.307Z,33.00
2018-02-23T04:41:52.571Z,33.60
2018-02-23T04:42:27.898Z,32.90
2018-02-23T04:43:03.390Z,33.50
2018-02-23T04:43:38.725Z,33.60
2018-02-23T04:44:14.004Z,34.40
2018-02-23T04:44:49.121Z,35.60
2018-02-23T04:45:24.545Z,34.40
2018-02-23T04:46:00.044Z,33.00
2018-02-23T04:46:35.536Z,32.60
2018-02-23T04:47:10.751Z,34.10
2018-02-23T04:47:46.405Z,36.20
2018-02-23T04:48:21.948Z,34.10
2018-02-23T04:48:57.222Z,34.40
2018-02-23T04:49:32.667Z,34.30
2018-02-23T04:50:07.970Z,32.70
2018-02-23T04:50:44.665Z,34.80
2018-02-23T04:51:20.004Z,35.00
2018-02-23T04:51:55.209Z,35.40
2018-02-23T04:52:30.314Z,34.30
2018-02-23T04:53:05.592Z,35.10
2018-02-23T04:53:41.027Z,33.90
2018-02-23T04:54:16.311Z,33.30
2018-02-23T04:54:51.520Z,34.50
2018-02-23T04:55:26.634Z,34.50
2018-02-23T04:56:03.435Z,35.20
2018-02-23T04:56:38.999Z,33.80
2018-02-23T04:57:14.412Z,34.20
2018-02-23T04:57:49.936Z,34.80
2018-02-23T04:58:25.188Z,35.50
2018-02-23T04:59:00.799Z,34.00
2018-02-23T04:59:36.107Z,34.10
2018-02-23T05:00:11.782Z,34.50
2018-02-23T05:00:48.922Z,32.90
2018-02-23T05:01:24.471Z,33.70
2018-02-23T05:01:59.760Z,33.00
2018-02-23T05:02:35.189Z,33.70
2018-02-23T05:03:10.352Z,34.10
2018-02-23T05:03:45.514Z,33.60
2018-02-23T05:04:21.235Z,33.00
2018-02-23T05:04:56.342Z,33.20
2018-02-23T05:05:31.570Z,33.00
2018-02-23T05:06:06.870Z,33.60
2018-02-23T05:06:42.291Z,35.00
2018-02-23T05:07:17.581Z,34.60
2018-02-23T05:07:52.941Z,35.00
2018-02-23T05:08:28.306Z,33.80
2018-02-23T05:09:03.431Z,32.70
2018-02-23T05:09:38.759Z,32.40
2018-02-23T05:10:14.183Z,33.50
2018-02-23T05:10:51.261Z,34.40
2018-02-23T05:11:26.874Z,32.70
2018-02-23T05:12:02.172Z,31.80
2018-02-23T05:12:37.525Z,32.20
2018-02-23T05:13:13.128Z,32.20
2018-02-23T05:13:48.414Z,33.40
2018-02-23T05:14:23.620Z,33.30
2018-02-23T05:14:58.950Z,32.40
2018-02-23T05:15:34.275Z,32.20
2018-02-23T05:16:09.783Z,33.00
2018-02-23T05:16:45.213Z,32.70
2018-02-23T05:17:20.736Z,33.30
2018-02-23T05:17:56.329Z,32.20
2018-02-23T05:18:31.729Z,33.70
2018-02-23T05:19:07.235Z,33.70
2018-02-23T05:19:42.775Z,31.90
2018-02-23T05:20:18.083Z,32.10
2018-02-23T05:20:53.401Z,32.10
2018-02-23T05:21:28.726Z,32.60
2018-02-23T05:22:03.910Z,34.00
2018-02-23T05:22:39.220Z,32.10
2018-02-23T05:23:14.597Z,32.80
2018-02-23T05:23:49.938Z,32.30
2018-02-23T05:24:25.377Z,32.30
2018-02-23T05:25:00.772Z,31.40
2018-02-23T05:25:36.481Z,30.80
2018-02-23T05:26:11.996Z,32.70
2018-02-23T05:26:47.513Z,33.40
2018-02-23T05:27:22.725Z,31.70
2018-02-23T05:27:58.224Z,30.80
2018-02-23T05:28:33.655Z,31.30
2018-02-23T05:29:09.005Z,31.50
2018-02-23T05:29:44.378Z,31.80
2018-02-23T05:30:19.441Z,32.70
2018-02-23T05:30:55.903Z,31.40
2018-02-23T05:31:31.238Z,31.40
2018-02-23T05:32:06.550Z,33.00
2018-02-23T05:32:44.300Z,32.40
2018-02-23T05:33:19.641Z,32.30
2018-02-23T05:33:54.994Z,31.20
2018-02-23T05:34:30.698Z,30.60
2018-02-23T05:35:06.293Z,32.10
2018-02-23T05:35:41.600Z,31.00
2018-02-23T05:36:17.203Z,31.40
2018-02-23T05:36:52.516Z,31.00
2018-02-23T05:37:27.962Z,31.00
2018-02-23T05:38:03.244Z,32.00
2018-02-23T05:38:38.356Z,33.10
2018-02-23T05:39:13.561Z,30.90
2018-02-23T05:39:49.228Z,31.40
2018-02-23T05:40:24.737Z,32.20
2018-02-23T05:41:00.034Z,32.00
2018-02-23T05:41:35.650Z,31.40
2018-02-23T05:42:11.037Z,31.00
2018-02-23T05:42:46.357Z,31.40
2018-02-23T05:43:21.772Z,30.40
2018-02-23T05:43:57.585Z,32.00
2018-02-23T05:44:32.913Z,31.70
2018-02-23T05:45:08.020Z,32.00
2018-02-23T05:45:43.879Z,30.80
2018-02-23T05:46:19.314Z,31.70
2018-02-23T05:46:54.404Z,32.30
2018-02-23T05:47:29.925Z,29.60
2018-02-23T05:48:05.329Z,31.20
2018-02-23T05:48:40.759Z,31.50
2018-02-23T05:49:15.965Z,29.80
2018-02-23T05:49:51.277Z,30.80
2018-02-23T05:50:26.397Z,30.70
2018-02-23T05:51:01.871Z,29.50
2018-02-23T05:51:36.986Z,30.90
2018-02-23T05:52:12.184Z,31.80
2018-02-23T05:52:47.586Z,29.80
2018-02-23T05:53:23.015Z,29.40
2018-02-23T05:53:58.543Z,30.10
2018-02-23T05:54:33.644Z,29.70
2018-02-23T05:55:09.242Z,30.60
2018-02-23T05:55:44.343Z,29.90
2018-02-23T05:56:19.764Z,29.70
2018-02-23T05:56:55.190Z,30.40
2018-02-23T05:57:30.622Z,30.90
2018-02-23T05:58:05.833Z,30.10
2018-02-23T05:58:41.259Z,30.60
2018-02-23T05:59:16.887Z,30.50
2018-02-23T05:59:52.619Z,31.20
2018-02-23T06:00:28.226Z,32.40
2018-02-23T06:01:03.708Z,29.80
2018-02-23T06:01:39.131Z,29.30
2018-02-23T06:02:14.523Z,30.10
2018-02-23T06:02:50.070Z,31.40
2018-02-23T06:03:25.500Z,30.40
2018-02-23T06:04:00.815Z,32.00
2018-02-23T06:04:36.183Z,31.10
2018-02-23T06:05:12.474Z,30.20
2018-02-23T06:05:47.690Z,30.30
2018-02-23T06:06:23.229Z,28.40
2018-02-23T06:06:58.557Z,28.80
2018-02-23T06:07:33.816Z,30.20
2018-02-23T06:08:09.426Z,30.10
2018-02-23T06:08:45.070Z,28.30
2018-02-23T06:09:20.427Z,29.00
2018-02-23T06:09:55.961Z,29.30
2018-02-23T06:10:31.356Z,30.00
2018-02-23T06:11:06.928Z,31.20
2018-02-23T06:11:43.216Z,30.60
2018-02-23T06:12:18.608Z,29.80
2018-02-23T06:12:54.131Z,28.90
2018-02-23T06:13:29.657Z,29.00
2018-02-23T06:14:05.059Z,28.00
2018-02-23T06:14:40.616Z,28.90
2018-02-23T06:15:16.390Z,28.40
2018-02-23T06:15:51.856Z,28.50
2018-02-23T06:16:27.366Z,28.60
2018-02-23T06:17:02.700Z,28.80
2018-02-23T06:17:37.934Z,28.80
2018-02-23T06:18:13.325Z,28.20
2018-02-23T06:18:48.454Z,27.80
2018-02-23T06:19:23.911Z,27.50
2018-02-23T06:19:59.281Z,28.10
2018-02-23T06:20:34.534Z,27.80
2018-02-23T06:21:09.761Z,27.30
2018-02-23T06:21:44.927Z,28.50
2018-02-23T06:22:20.376Z,26.40
2018-02-23T06:22:58.778Z,25.90
2018-02-23T06:23:36.616Z,27.90
2018-02-23T06:24:11.833Z,26.10
2018-02-23T06:24:47.216Z,25.70
2018-02-23T06:25:22.987Z,27.40
2018-02-23T06:26:01.690Z,27.10
2018-02-23T06:26:39.050Z,27.30
2018-02-23T06:27:14.331Z,27.70
2018-02-23T06:27:49.798Z,28.90
2018-02-23T06:28:24.964Z,26.30
2018-02-23T06:29:00.350Z,25.80
2018-02-23T06:29:36.006Z,26.80
2018-02-23T06:30:11.300Z,26.00
2018-02-23T06:30:47.716Z,25.30
2018-02-23T06:31:23.349Z,25.50
2018-02-23T06:31:58.745Z,25.40
2018-02-23T06:32:34.231Z,27.30
2018-02-23T06:33:09.540Z,27.00
2018-02-23T06:33:44.764Z,25.60
2018-02-23T06:34:20.505Z,27.40
2018-02-23T06:34:56.040Z,27.20
2018-02-23T06:35:31.459Z,27.50
2018-02-23T06:36:08.072Z,26.20
2018-02-23T06:36:44.615Z,25.60
2018-02-23T06:37:19.950Z,26.30
2018-02-23T06:37:55.234Z,26.60
2018-02-23T06:38:30.588Z,26.50
2018-02-23T06:39:06.149Z,26.70
2018-02-23T06:39:41.727Z,26.90
2018-02-23T06:40:17.060Z,25.80
2018-02-23T06:40:53.656Z,25.90
2018-02-23T06:41:29.003Z,25.90
2018-02-23T06:42:04.302Z,25.70
2018-02-23T06:42:39.711Z,25.20
2018-02-23T06:43:15.005Z,24.10
2018-02-23T06:43:50.215Z,24.10
2018-02-23T06:44:25.856Z,25.90
2018-02-23T06:45:01.491Z,25.90
2018-02-23T06:45:39.892Z,25.70
2018-02-23T06:46:15.091Z,26.50
2018-02-23T06:46:50.845Z,26.00
2018-02-23T06:47:26.087Z,25.20
2018-02-23T06:48:02.938Z,24.20
2018-02-23T06:48:38.591Z,23.80
2018-02-23T06:49:14.013Z,25.20
2018-02-23T06:49:49.473Z,26.00
2018-02-23T06:50:24.716Z,24.30
2018-02-23T06:51:00.026Z,26.10
2018-02-23T06:51:35.559Z,27.40
2018-02-23T06:52:11.044Z,25.60
2018-02-23T06:52:48.392Z,25.90
2018-02-23T06:53:23.852Z,25.60
2018-02-23T06:53:59.458Z,24.90
2018-02-23T06:54:34.894Z,26.40
2018-02-23T06:55:10.101Z,26.20
2018-02-23T06:55:47.546Z,26.10
2018-02-23T06:56:25.965Z,26.00
2018-02-23T06:57:01.178Z,26.50
2018-02-23T06:57:36.583Z,26.00
2018-02-23T06:58:12.001Z,24.20
2018-02-23T06:58:47.525Z,25.20
2018-02-23T06:59:22.855Z,24.80
2018-02-23T06:59:58.178Z,23.90
2018-02-23T07:00:33.821Z,24.70
2018-02-23T07:01:09.216Z,25.00
2018-02-23T07:01:45.573Z,24.70
2018-02-23T07:02:21.137Z,25.00
2018-02-23T07:02:56.554Z,24.30
2018-02-23T07:03:32.143Z,22.90
2018-02-23T07:04:07.801Z,22.90
2018-02-23T07:04:43.250Z,22.80
2018-02-23T07:05:18.963Z,23.10
2018-02-23T07:05:54.275Z,23.80
2018-02-23T07:06:29.927Z,22.80
2018-02-23T07:07:05.241Z,22.70
2018-02-23T07:07:40.598Z,22.40
2018-02-23T07:08:15.816Z,23.00
2018-02-23T07:08:51.961Z,22.80
2018-02-23T07:09:27.290Z,22.00
2018-02-23T07:10:02.512Z,21.70
2018-02-23T07:10:40.141Z,21.60
2018-02-23T07:11:15.377Z,20.60
2018-02-23T07:11:50.660Z,20.60
2018-02-23T07:12:26.114Z,21.80
2018-02-23T07:13:01.314Z,22.00
2018-02-23T07:13:36.862Z,22.20
2018-02-23T07:14:12.061Z,21.80
2018-02-23T07:14:47.489Z,21.40
2018-02-23T07:15:22.624Z,21.90
2018-02-23T07:15:59.203Z,21.60
2018-02-23T07:16:34.839Z,20.80
2018-02-23T07:17:10.229Z,20.50
2018-02-23T07:17:45.821Z,20.80
2018-02-23T07:18:21.045Z,21.80
2018-02-23T07:18:56.430Z,21.80
2018-02-23T07:19:31.871Z,20.60
2018-02-23T07:20:07.490Z,19.30
2018-02-23T07:20:44.858Z,19.10
2018-02-23T07:21:20.279Z,20.50
2018-02-23T07:21:55.673Z,21.10
2018-02-23T07:22:31.283Z,20.60
2018-02-23T07:23:06.828Z,20.00
2018-02-23T07:23:42.246Z,20.00
2018-02-23T07:24:17.657Z,19.70
2018-02-23T07:24:53.038Z,19.80
2018-02-23T07:25:28.514Z,19.70
2018-02-23T07:26:05.204Z,19.60
2018-02-23T07:26:40.702Z,19.40
2018-02-23T07:27:16.213Z,20.10
2018-02-23T07:27:51.662Z,20.30
2018-02-23T07:28:27.078Z,20.70
2018-02-23T07:29:02.462Z,19.50
2018-02-23T07:29:37.997Z,20.70
2018-02-23T07:30:13.519Z,19.00
2018-02-23T07:30:50.743Z,18.90
2018-02-23T07:31:25.954Z,20.40
2018-02-23T07:32:00.953Z,20.40
2018-02-23T07:32:37.631Z,18.80
2018-02-23T07:33:13.031Z,19.60
2018-02-23T07:33:48.547Z,19.70
2018-02-23T07:34:23.676Z,18.90
2018-02-23T07:34:59.097Z,19.50
2018-02-23T07:35:34.735Z,19.70
2018-02-23T07:36:14.352Z,20.10
2018-02-23T07:36:49.827Z,20.60
2018-02-23T07:37:25.602Z,20.60
2018-02-23T07:38:01.005Z,19.90
2018-02-23T07:38:36.445Z,19.90
2018-02-23T07:39:11.881Z,19.60